This is the latest recevied weather packets stored in our database for station/object AD7ZD. If no packets are shown the sender has not sent any weather packets the latest 10 day(s).
| Time | Temp. | Humidity | Pressure | Rain* | Wind** | Luminosity | Snow |
|---|---|---|---|---|---|---|---|
| 1777603981 | 18.33° C | 21% | 1012.9 hPa | 0 mm | - | 0 W/m² | - |
| 1777603677 | 18.89° C | 20% | 1012.8 hPa | 0 mm | - | 0 W/m² | - |
| 1777603375 | 18.89° C | 20% | 1012.9 hPa | 0 mm | - | 2 W/m² | - |
| 1777603070 | 18.89° C | 20% | 1012.7 hPa | 0 mm | - | 6 W/m² | - |
| 1777602765 | 19.44° C | 20% | 1012.9 hPa | 0 mm | - | 9 W/m² | - |
| 1777602460 | 19.44° C | 20% | 1012.8 hPa | 0 mm | - | 15 W/m² | - |
| 1777602157 | 19.44° C | 20% | 1012.6 hPa | 0 mm | - | 15 W/m² | - |
| 1777601852 | 19.44° C | 20% | 1012.7 hPa | 0 mm | - | 18 W/m² | - |
| 1777601243 | 20° C | 26% | 1012.7 hPa | 0 mm | - | 32 W/m² | - |
| 1777600941 | 20.56° C | 23% | 1012.8 hPa | 0 mm | - | 39 W/m² | - |
| 1777600636 | 20.56° C | 19% | 1012.7 hPa | 0 mm | - | 44 W/m² | - |
| 1777587274 | 21.11° C | 19% | 1013.6 hPa | 0 mm | - | 561 W/m² | - |
| 1777586970 | 21.11° C | 19% | 1013.6 hPa | 0 mm | - | 475 W/m² | - |
| 1777585453 | 20.56° C | 19% | 1014.3 hPa | 0 mm | - | 723 W/m² | - |
| 1777584239 | 20° C | 20% | 1014.3 hPa | 0 mm | - | 781 W/m² | - |
| 1777583939 | 20.56° C | 20% | 1014.1 hPa | 0 mm | - | 782 W/m² | - |
| 1777583334 | 20.56° C | 20% | 1014.3 hPa | 0 mm | - | 740 W/m² | - |
| 1777579692 | 22.22° C | 19% | 1014.9 hPa | 0 mm | - | 768 W/m² | - |
| 1777578177 | 18.89° C | 21% | 1014.9 hPa | 0 mm | - | 654 W/m² | - |
| 1777577266 | 19.44° C | 20% | 1015.2 hPa | 0 mm | - | 800 W/m² | - |
| 1777576963 | 19.44° C | 21% | 1015.1 hPa | 0 mm | - | 818 W/m² | - |
| 1777576658 | 19.44° C | 22% | 1015.2 hPa | 0 mm | - | 823 W/m² | - |
| 1777573319 | 18.33° C | 25% | 1016 hPa | 0 mm | - | 909 W/m² | - |
| 1777571191 | 17.78° C | 26% | 1016.3 hPa | 0 mm | - | 893 W/m² | - |
| 1777570280 | 17.22° C | 26% | 1016.2 hPa | 0 mm | - | 833 W/m² | - |
* Rain latest hour (hover to see other rain measurements)
** Current wind speed in m/s (hover to see current wind gust speed)